Time;durP1;ratioP1;P1;durP2;ratioP2;P2;SDS_P1;SDS_P2;PMS_P1;PMS_P2;Temp;Humidity;BMP_temperature;BMP_pressure;BME280_temperature;BME280_humidity;BME280_pressure;Samples;Min_cycle;Max_cycle;Signal;HPM_P1;HPM_P2
2021/06/21 00:01:20;;;;;;;10.95;9.30;;;512.40;2380.80;;;;;;5059240;28;20032;-80
2021/06/21 00:03:48;;;;;;;13.95;9.23;;;512.40;2380.80;;;;;;5059500;28;20021;-80
2021/06/21 00:06:14;;;;;;;12.18;9.00;;;512.40;2380.80;;;;;;5059083;28;20077;-79
2021/06/21 00:08:40;;;;;;;11.57;9.40;;;512.50;2380.80;;;;;;5058547;28;20052;-79
2021/06/21 00:11:06;;;;;;;12.55;9.65;;;512.50;2380.80;;;;;;5077035;28;20475;-80
2021/06/21 00:13:32;;;;;;;11.85;8.90;;;512.50;2380.80;;;;;;5059435;28;20024;-79
2021/06/21 00:15:58;;;;;;;15.10;9.98;;;512.40;2380.80;;;;;;5076063;28;20004;-80
2021/06/21 00:18:24;;;;;;;13.10;9.85;;;512.50;2380.80;;;;;;5082375;28;20009;-78
2021/06/21 00:20:52;;;;;;;12.85;9.98;;;512.40;2380.80;;;;;;5083082;28;20088;-80
2021/06/21 00:23:19;;;;;;;12.48;9.35;;;512.40;2380.80;;;;;;5099275;28;20038;-80
2021/06/21 00:25:45;;;;;;;16.67;10.55;;;512.40;2380.80;;;;;;5100116;28;20072;-80
2021/06/21 00:28:11;;;;;;;15.70;9.98;;;512.40;2380.80;;;;;;5083023;28;20024;-78
2021/06/21 00:30:37;;;;;;;15.50;10.25;;;512.30;2380.80;;;;;;5100432;28;20025;-80
2021/06/21 00:33:03;;;;;;;19.10;11.15;;;512.30;2380.80;;;;;;5083675;28;20024;-78
2021/06/21 00:35:29;;;;;;;15.82;10.93;;;512.40;2380.80;;;;;;5082935;28;20013;-79
2021/06/21 00:37:57;;;;;;;17.33;11.85;;;512.40;2380.80;;;;;;5083424;28;20015;-76
2021/06/21 00:40:24;;;;;;;19.00;11.65;;;512.40;2380.80;;;;;;5100659;28;20015;-80
2021/06/21 00:42:50;;;;;;;14.52;10.45;;;512.30;2380.80;;;;;;5082951;28;20016;-77
2021/06/21 00:45:20;;;;;;;13.82;10.82;;;537.70;2406.40;;;;;;5083340;28;20115;-76
2021/06/21 00:47:47;;;;;;;13.43;10.32;;;512.20;2380.80;;;;;;5083555;28;20025;-76
2021/06/21 00:50:14;;;;;;;13.50;10.25;;;512.20;2380.80;;;;;;5082833;28;20031;-77
2021/06/21 00:52:42;;;;;;;14.80;10.43;;;512.10;2380.80;;;;;;5065418;28;20437;-80
2021/06/21 00:55:09;;;;;;;13.05;10.75;;;512.10;2380.80;;;;;;5060202;28;20119;-79
2021/06/21 00:57:36;;;;;;;17.33;11.70;;;512.20;2380.80;;;;;;5077319;28;20023;-78
2021/06/21 01:00:14;;;;;;;15.02;10.80;;;512.20;2380.80;;;;;;5077010;28;20027;-79
2021/06/21 01:02:40;;;;;;;12.38;9.95;;;512.20;2380.80;;;;;;5058349;28;20047;-78
2021/06/21 01:05:08;;;;;;;13.40;10.00;;;512.30;2380.80;;;;;;5058094;28;20027;-78
2021/06/21 01:07:35;;;;;;;17.90;11.02;;;512.20;2380.80;;;;;;5075814;28;20104;-79
2021/06/21 01:10:03;;;;;;;17.75;10.70;;;512.30;2380.80;;;;;;5075586;28;20025;-78
2021/06/21 01:12:34;;;;;;;20.30;12.18;;;512.20;2380.80;;;;;;5075894;28;20052;-78
2021/06/21 01:15:06;;;;;;;17.13;11.80;;;512.20;2380.80;;;;;;5057589;28;20469;-79
2021/06/21 01:17:44;;;;;;;;;;;512.10;2380.80;;;;;;5058043;28;20027;-81
2021/06/21 01:20:41;;;;;;;22.02;12.88;;;512.00;2380.80;;;;;;5057547;28;19995;-78
2021/06/21 01:23:28;;;;;;;23.25;13.32;;;487.30;2380.80;;;;;;5057396;28;20020;-77
2021/06/21 01:26:07;;;;;;;21.23;12.32;;;487.30;2380.80;;;;;;5056936;28;20452;-78
2021/06/21 01:28:34;;;;;;;16.90;12.00;;;487.00;2380.80;;;;;;5075080;28;20142;-78
2021/06/21 01:31:09;;;;;;;21.60;13.70;;;487.00;2380.80;;;;;;5056989;28;20021;-78
2021/06/21 01:33:37;;;;;;;15.10;13.43;;;487.10;2380.80;;;;;;5056955;28;20032;-78
2021/06/21 01:36:06;;;;;;;19.90;12.77;;;487.20;2380.80;;;;;;5056389;28;20027;-78
2021/06/21 01:38:40;;;;;;;15.98;11.73;;;487.20;2380.80;;;;;;5056549;28;20020;-79
2021/06/21 01:41:23;;;;;;;17.00;11.70;;;487.00;2380.80;;;;;;5056936;28;20107;-79
2021/06/21 01:43:51;;;;;;;15.40;11.15;;;487.00;2380.80;;;;;;5074838;28;20075;-78
2021/06/21 01:46:20;;;;;;;16.60;11.43;;;487.10;2380.80;;;;;;5056361;28;20028;-78
2021/06/21 01:48:50;;;;;;;17.88;12.55;;;487.10;2380.80;;;;;;5056736;28;20024;-78
2021/06/21 01:51:18;;;;;;;17.85;12.07;;;487.20;2380.80;;;;;;5056607;28;20025;-79
2021/06/21 01:53:47;;;;;;;15.73;11.88;;;487.30;2380.80;;;;;;5056333;28;20025;-78
2021/06/21 01:56:32;;;;;;;16.73;12.68;;;487.30;2380.80;;;;;;5056410;28;20029;-78
2021/06/21 01:59:01;;;;;;;17.88;11.98;;;487.10;2380.80;;;;;;5056318;28;20449;-79
2021/06/21 02:01:28;;;;;;;14.38;11.45;;;487.00;2380.80;;;;;;5055795;28;20024;-79
2021/06/21 02:03:58;;;;;;;14.60;12.98;;;487.00;2380.80;;;;;;5074233;28;20020;-79
2021/06/21 02:06:27;;;;;;;12.45;11.25;;;487.10;2380.80;;;;;;5056212;28;20126;-77
2021/06/21 02:08:54;;;;;;;16.65;11.90;;;487.20;2380.80;;;;;;5056499;28;20414;-79
2021/06/21 02:11:20;;;;;;;13.15;11.57;;;487.10;2380.80;;;;;;5056324;28;20021;-79
2021/06/21 02:13:49;;;;;;;14.98;11.63;;;486.90;2380.80;;;;;;5056060;28;20056;-78
2021/06/21 02:16:16;;;;;;;12.80;11.05;;;486.90;2380.80;;;;;;5074410;28;20032;-78
2021/06/21 02:18:43;;;;;;;12.82;10.45;;;486.80;2380.80;;;;;;5056192;28;20020;-78
2021/06/21 02:21:11;;;;;;;16.15;12.43;;;487.00;2380.80;;;;;;5055790;28;20032;-79
2021/06/21 02:23:39;;;;;;;13.13;11.18;;;486.90;2380.80;;;;;;5073937;28;20332;-79
2021/06/21 02:26:05;;;;;;;12.70;10.15;;;486.70;2380.80;;;;;;5056038;28;20392;-79
2021/06/21 02:28:32;;;;;;;14.05;10.98;;;486.60;2380.80;;;;;;5073831;28;20028;-78
2021/06/21 02:31:00;;;;;;;11.38;10.18;;;486.60;2380.80;;;;;;5055882;28;20531;-78
2021/06/21 02:33:27;;;;;;;14.07;10.38;;;486.70;2380.80;;;;;;5056080;28;20021;-79
2021/06/21 02:35:53;;;;;;;12.07;10.13;;;486.70;2380.80;;;;;;5055662;28;20027;-78
2021/06/21 02:38:19;;;;;;;13.55;10.98;;;486.60;2380.80;;;;;;5073856;28;20055;-75
2021/06/21 02:40:45;;;;;;;13.27;10.60;;;486.50;2380.80;;;;;;5073864;28;20028;-78
2021/06/21 02:43:12;;;;;;;12.70;11.40;;;486.60;2380.80;;;;;;5055442;28;20024;-78
2021/06/21 02:45:38;;;;;;;14.18;11.90;;;486.40;2380.80;;;;;;5055919;28;20016;-79
2021/06/21 02:48:06;;;;;;;13.73;10.98;;;486.40;2380.80;;;;;;5054506;28;20020;-78
2021/06/21 02:50:34;;;;;;;13.65;10.65;;;486.50;2380.80;;;;;;5073377;28;20022;-76
2021/06/21 02:53:14;;;;;;;13.02;10.23;;;486.60;2380.80;;;;;;5073363;28;20025;-76
2021/06/21 02:55:52;;;;;;;13.90;11.30;;;486.40;2380.80;;;;;;5073160;28;20021;-78
2021/06/21 02:58:25;;;;;;;15.20;10.95;;;486.60;2380.80;;;;;;5055729;28;20024;-76
2021/06/21 03:00:52;;;;;;;12.30;10.95;;;486.60;2380.80;;;;;;5055676;28;20028;-76
2021/06/21 03:03:24;;;;;;;13.15;11.63;;;486.60;2380.80;;;;;;5073394;28;20044;-78
2021/06/21 03:05:51;;;;;;;14.63;11.38;;;486.70;2380.80;;;;;;5055544;28;20025;-77
2021/06/21 03:08:21;;;;;;;13.10;11.80;;;486.70;2380.80;;;;;;5055574;28;20514;-77
2021/06/21 03:10:50;;;;;;;17.05;12.93;;;486.60;2380.80;;;;;;5055134;28;20044;-76
2021/06/21 03:13:20;;;;;;;13.18;11.57;;;486.70;2380.80;;;;;;5055442;28;20525;-76
2021/06/21 03:15:48;;;;;;;14.30;12.50;;;486.70;2380.80;;;;;;5073536;28;20017;-76
2021/06/21 03:18:14;;;;;;;13.07;11.68;;;486.60;2380.80;;;;;;5055226;28;20056;-76
2021/06/21 03:20:41;;;;;;;14.07;11.63;;;486.70;2380.80;;;;;;5055371;28;20113;-76
2021/06/21 03:23:06;;;;;;;13.75;10.88;;;486.70;2380.80;;;;;;5055061;28;20016;-76
2021/06/21 03:25:35;;;;;;;16.52;12.10;;;486.70;2380.80;;;;;;5055402;28;20082;-76
2021/06/21 03:28:10;;;;;;;19.05;11.50;;;486.70;2380.80;;;;;;5073049;28;20024;-76
2021/06/21 03:30:39;;;;;;;15.55;11.93;;;486.60;2380.80;;;;;;5073275;28;20024;-75
2021/06/21 03:33:05;;;;;;;25.63;10.77;;;461.70;2380.80;;;;;;5073000;28;20414;-77
2021/06/21 03:35:30;;;;;;;16.67;11.70;;;461.70;2380.80;;;;;;5073344;28;20016;-76
2021/06/21 03:38:08;;;;;;;20.75;13.18;;;461.70;2380.80;;;;;;5055002;28;20025;-76
2021/06/21 03:40:34;;;;;;;22.35;16.33;;;461.70;2380.80;;;;;;5055293;28;20103;-76
2021/06/21 03:43:00;;;;;;;17.33;14.38;;;486.40;2380.80;;;;;;5055188;28;20031;-76
2021/06/21 03:45:26;;;;;;;20.13;15.68;;;461.70;2380.80;;;;;;5054953;28;20368;-76
2021/06/21 03:47:51;;;;;;;20.02;15.05;;;461.70;2380.80;;;;;;5054796;28;20024;-77
2021/06/21 03:50:17;;;;;;;17.45;13.70;;;461.70;2380.80;;;;;;5073188;28;20024;-77
2021/06/21 03:52:43;;;;;;;15.32;13.18;;;461.70;2380.80;;;;;;5054802;28;20039;-76
2021/06/21 03:55:10;;;;;;;14.20;12.48;;;486.50;2380.80;;;;;;5055287;28;20020;-75
2021/06/21 03:57:42;;;;;;;16.83;13.23;;;486.60;2380.80;;;;;;5073071;28;20043;-77
2021/06/21 04:00:15;;;;;;;17.67;12.27;;;486.50;2380.80;;;;;;5056960;28;20367;-77
2021/06/21 04:02:41;;;;;;;17.88;11.73;;;486.60;2380.80;;;;;;5055207;28;20492;-77
2021/06/21 04:05:08;;;;;;;12.63;11.32;;;486.70;2380.80;;;;;;5055001;28;20106;-76
2021/06/21 04:07:34;;;;;;;15.48;11.52;;;486.80;2380.80;;;;;;5055337;28;20371;-78
2021/06/21 04:10:03;;;;;;;13.57;10.65;;;486.80;2380.80;;;;;;5056403;28;20449;-79
2021/06/21 04:12:30;;;;;;;14.70;10.77;;;486.50;2380.80;;;;;;5055879;28;20021;-78
2021/06/21 04:14:56;;;;;;;12.70;10.00;;;486.50;2380.80;;;;;;5055143;28;20380;-78
2021/06/21 04:17:22;;;;;;;16.30;10.75;;;486.50;2380.80;;;;;;5055166;28;20021;-78
2021/06/21 04:19:48;;;;;;;14.25;11.68;;;486.40;2380.80;;;;;;5056157;28;20079;-79
2021/06/21 04:22:14;;;;;;;12.63;11.15;;;486.50;2380.80;;;;;;5055048;28;20021;-78
2021/06/21 04:24:39;;;;;;;13.45;10.32;;;486.40;2380.80;;;;;;5056352;28;20013;-78
2021/06/21 04:27:05;;;;;;;13.35;11.00;;;486.40;2380.80;;;;;;5054676;28;20111;-78
2021/06/21 04:29:31;;;;;;;14.35;11.05;;;461.70;2380.80;;;;;;5054831;28;20071;-77
2021/06/21 04:31:57;;;;;;;15.35;11.40;;;461.70;2380.80;;;;;;5054756;28;20021;-75
2021/06/21 04:34:23;;;;;;;18.45;11.85;;;486.40;2380.80;;;;;;5055464;28;20092;-75
2021/06/21 04:36:49;;;;;;;15.13;12.07;;;486.60;2380.80;;;;;;5054706;28;20383;-79
2021/06/21 04:39:14;;;;;;;14.32;11.13;;;486.50;2380.80;;;;;;5054861;28;20067;-78
2021/06/21 04:41:40;;;;;;;20.75;12.10;;;486.60;2380.80;;;;;;5054572;28;20413;-78
2021/06/21 04:44:06;;;;;;;14.95;11.15;;;486.60;2380.80;;;;;;5054802;28;20068;-78
2021/06/21 04:46:33;;;;;;;17.77;12.75;;;486.60;2380.80;;;;;;5054338;28;20021;-75
2021/06/21 04:49:00;;;;;;;14.75;12.38;;;486.70;2380.80;;;;;;5054034;28;20078;-76
2021/06/21 04:51:27;;;;;;;18.25;12.38;;;486.70;2380.80;;;;;;5055423;28;20346;-76
2021/06/21 04:53:53;;;;;;;18.75;12.77;;;486.80;2380.80;;;;;;5054369;28;20024;-76
2021/06/21 04:56:19;;;;;;;15.13;12.18;;;486.80;2380.80;;;;;;5055635;28;20021;-76
2021/06/21 04:58:45;;;;;;;15.13;11.90;;;486.90;2380.80;;;;;;5054308;28;20021;-76
2021/06/21 05:01:11;;;;;;;17.80;12.90;;;486.90;2380.80;;;;;;5054016;28;20032;-76
2021/06/21 05:03:37;;;;;;;23.48;14.32;;;487.00;2380.80;;;;;;5075150;28;20515;-76
2021/06/21 05:06:06;;;;;;;24.35;14.18;;;487.00;2380.80;;;;;;5075380;28;20021;-76
2021/06/21 05:08:33;;;;;;;16.77;13.65;;;487.20;2380.80;;;;;;5040368;28;20031;-76
2021/06/21 05:10:59;;;;;;;19.02;13.80;;;487.10;2380.80;;;;;;5074246;28;20021;-76
2021/06/21 05:13:25;;;;;;;22.02;12.60;;;487.20;2380.80;;;;;;5075132;28;20032;-76
2021/06/21 05:15:51;;;;;;;18.95;12.80;;;487.30;2380.80;;;;;;5057294;28;20031;-75
2021/06/21 05:18:17;;;;;;;21.55;14.70;;;487.30;2380.80;;;;;;5057264;28;20021;-77
2021/06/21 05:20:43;;;;;;;24.55;13.70;;;512.00;2380.80;;;;;;5056580;28;20070;-77
2021/06/21 05:23:09;;;;;;;22.95;13.70;;;512.10;2380.80;;;;;;5057143;28;20020;-77
2021/06/21 05:25:35;;;;;;;23.75;14.02;;;512.20;2380.80;;;;;;5057121;28;20016;-76
2021/06/21 05:28:02;;;;;;;24.38;14.40;;;512.10;2380.80;;;;;;5074725;28;20032;-78
2021/06/21 05:30:28;;;;;;;26.52;14.32;;;512.40;2380.80;;;;;;5074687;28;20031;-78
2021/06/21 05:32:54;;;;;;;20.95;13.55;;;512.50;2380.80;;;;;;5056809;28;20020;-78
2021/06/21 05:35:21;;;;;;;27.30;14.20;;;512.60;2380.80;;;;;;5056907;28;20017;-78
2021/06/21 05:37:48;;;;;;;21.30;13.40;;;512.70;2380.80;;;;;;5056934;28;20118;-78
2021/06/21 05:40:15;;;;;;;18.88;14.70;;;512.80;2380.80;;;;;;5056432;28;20016;-78
2021/06/21 05:42:41;;;;;;;20.25;13.25;;;537.60;2406.40;;;;;;5056904;28;20565;-78
2021/06/21 05:45:07;;;;;;;18.80;12.88;;;537.70;2406.40;;;;;;5075029;28;20021;-78
2021/06/21 05:47:33;;;;;;;20.73;11.57;;;537.70;2406.40;;;;;;5074503;28;20081;-78
2021/06/21 05:49:59;;;;;;;20.23;13.00;;;537.70;2406.40;;;;;;5056691;28;20021;-77
2021/06/21 05:52:25;;;;;;;25.77;16.83;;;537.80;2406.40;;;;;;5056521;28;20025;-77
2021/06/21 05:54:51;;;;;;;20.30;14.90;;;537.80;2406.40;;;;;;5056338;28;20032;-78
2021/06/21 05:57:16;;;;;;;23.00;15.57;;;537.90;2406.40;;;;;;5056436;28;20132;-77
2021/06/21 05:59:42;;;;;;;18.90;13.52;;;538.10;2406.40;;;;;;5056554;28;20027;-78
2021/06/21 06:02:08;;;;;;;17.83;12.18;;;538.10;2406.40;;;;;;5055946;28;20076;-78
2021/06/21 06:04:35;;;;;;;16.45;12.43;;;538.10;2406.40;;;;;;5056493;28;20027;-77
2021/06/21 06:07:01;;;;;;;23.60;12.38;;;538.10;2406.40;;;;;;5056390;28;20024;-78
2021/06/21 06:09:27;;;;;;;19.38;11.75;;;538.30;2406.40;;;;;;5055905;28;20368;-78
2021/06/21 06:11:53;;;;;;;14.05;11.13;;;538.40;2406.40;;;;;;5073832;28;20116;-79
2021/06/21 06:14:19;;;;;;;13.00;10.52;;;538.40;2406.40;;;;;;5056022;28;20048;-78
2021/06/21 06:16:44;;;;;;;13.52;10.98;;;563.20;2432.00;;;;;;5055976;28;20017;-79
2021/06/21 06:19:10;;;;;;;14.80;10.60;;;563.40;2432.00;;;;;;5056182;28;20364;-78
2021/06/21 06:21:36;;;;;;;18.67;10.77;;;563.50;2432.00;;;;;;5055800;28;20028;-78
2021/06/21 06:24:02;;;;;;;20.27;11.13;;;563.60;2432.00;;;;;;5055723;28;20028;-79
2021/06/21 06:26:28;;;;;;;17.00;11.15;;;563.80;2432.00;;;;;;5055873;28;20017;-78
2021/06/21 06:28:56;;;;;;;18.25;11.90;;;564.00;2432.00;;;;;;5055758;28;20112;-77
2021/06/21 06:31:22;;;;;;;16.33;11.20;;;564.00;2432.00;;;;;;5055829;28;20115;-77
2021/06/21 06:33:48;;;;;;;19.55;10.07;;;588.90;2432.00;;;;;;5073584;28;20016;-78
2021/06/21 06:36:14;;;;;;;17.05;10.20;;;589.10;2432.00;;;;;;5055564;28;20111;-78
2021/06/21 06:38:40;;;;;;;19.52;11.30;;;589.30;2432.00;;;;;;5055837;28;20074;-78
2021/06/21 06:41:06;;;;;;;14.90;10.73;;;589.40;2432.00;;;;;;5073461;28;20032;-78
2021/06/21 06:43:32;;;;;;;13.88;9.57;;;589.60;2432.00;;;;;;5055578;28;20021;-79
2021/06/21 06:45:58;;;;;;;14.48;11.75;;;589.70;2432.00;;;;;;5055761;28;20016;-78
2021/06/21 06:48:24;;;;;;;12.57;10.60;;;589.70;2432.00;;;;;;5055679;28;20021;-78
2021/06/21 06:50:49;;;;;;;15.90;12.38;;;589.60;2432.00;;;;;;5073290;28;20027;-77
2021/06/21 06:53:25;;;;;;;15.82;10.85;;;614.40;2432.00;;;;;;5073459;28;20107;-79
2021/06/21 06:58:35;;;;;;;22.75;10.23;;;589.70;2432.00;;;;;;5070187;28;20028;-77
2021/06/21 07:01:00;;;;;;;15.13;8.75;;;614.50;2432.00;;;;;;5042859;28;20376;-78
2021/06/21 07:03:26;;;;;;;19.63;8.00;;;614.80;2432.00;;;;;;5058269;28;20124;-78
2021/06/21 07:05:52;;;;;;;11.57;7.85;;;615.00;2432.00;;;;;;5062756;28;20033;-78
2021/06/21 07:08:18;;;;;;;12.57;8.23;;;615.10;2432.00;;;;;;5044332;28;20021;-77
2021/06/21 07:10:43;;;;;;;16.40;10.30;;;615.10;2432.00;;;;;;5038823;28;20522;-77
2021/06/21 07:13:09;;;;;;;11.27;8.40;;;615.20;2432.00;;;;;;5061206;28;20033;-76
2021/06/21 07:15:35;;;;;;;16.50;9.30;;;615.10;2432.00;;;;;;5053102;28;20497;-76
2021/06/21 07:18:01;;;;;;;14.45;10.48;;;615.10;2432.00;;;;;;5052878;28;20025;-77
2021/06/21 07:20:26;;;;;;;8.75;7.95;;;615.30;2432.00;;;;;;5035183;28;20025;-76
2021/06/21 07:22:52;;;;;;;13.55;7.35;;;640.10;2432.00;;;;;;5035237;28;20036;-76
2021/06/21 07:25:18;;;;;;;11.55;7.30;;;640.30;2432.00;;;;;;5052686;28;20027;-77
2021/06/21 07:27:44;;;;;;;11.90;8.50;;;640.50;2432.00;;;;;;5035451;28;20025;-75
2021/06/21 07:30:10;;;;;;;11.68;6.95;;;640.60;2432.00;;;;;;5053596;28;20025;-76
2021/06/21 07:32:36;;;;;;;11.85;8.88;;;640.70;2432.00;;;;;;5035150;28;20033;-77
2021/06/21 07:35:03;;;;;;;10.75;8.93;;;640.80;2432.00;;;;;;5055268;28;20025;-78
2021/06/21 07:37:29;;;;;;;18.92;13.38;;;640.80;2432.00;;;;;;5039087;28;20025;-77
2021/06/21 07:39:54;;;;;;;14.93;10.68;;;665.60;2432.00;;;;;;5056419;28;20029;-79
2021/06/21 07:42:20;;;;;;;12.13;10.43;;;665.70;2432.00;;;;;;5056926;28;20104;-77
2021/06/21 07:44:46;;;;;;;14.82;8.80;;;665.90;2432.00;;;;;;5039088;28;20028;-78
2021/06/21 07:47:12;;;;;;;9.82;7.78;;;666.10;2432.00;;;;;;5056613;28;20406;-79
2021/06/21 07:49:38;;;;;;;11.02;9.82;;;666.20;2432.00;;;;;;5038984;28;20544;-78
2021/06/21 07:52:04;;;;;;;13.70;8.40;;;666.30;2432.00;;;;;;5038667;28;20079;-79
2021/06/21 07:54:30;;;;;;;10.40;7.68;;;666.40;2432.00;;;;;;5056299;28;20078;-79
2021/06/21 07:56:55;;;;;;;10.68;7.13;;;666.20;2432.00;;;;;;5038835;28;20120;-79
2021/06/21 07:59:21;;;;;;;10.73;9.60;;;666.10;2432.00;;;;;;5038744;28;20032;-79
2021/06/21 08:01:47;;;;;;;9.55;7.20;;;666.50;2432.00;;;;;;5038152;28;20055;-77
2021/06/21 08:04:13;;;;;;;8.57;7.40;;;691.30;2432.00;;;;;;5038799;28;20056;-76
2021/06/21 08:06:39;;;;;;;13.50;7.55;;;691.30;2432.00;;;;;;5056171;28;20464;-77
2021/06/21 08:09:05;;;;;;;12.35;7.43;;;691.40;2432.00;;;;;;5056727;28;20021;-77
2021/06/21 08:11:30;;;;;;;9.75;6.95;;;691.60;2432.00;;;;;;5038446;28;20035;-77
2021/06/21 08:13:56;;;;;;;13.75;6.80;;;691.80;2432.00;;;;;;5038131;28;20060;-77
2021/06/21 08:16:23;;;;;;;9.80;6.70;;;691.80;2432.00;;;;;;5038487;28;20364;-77
2021/06/21 08:18:49;;;;;;;15.50;6.90;;;691.90;2432.00;;;;;;5043026;28;20017;-77
2021/06/21 08:21:14;;;;;;;11.65;7.18;;;691.80;2432.00;;;;;;5046488;28;20024;-76
2021/06/21 08:23:40;;;;;;;9.40;7.15;;;691.60;2432.00;;;;;;5044773;28;20407;-77
2021/06/21 08:26:06;;;;;;;17.92;10.13;;;691.90;2432.00;;;;;;5049633;28;20025;-77
2021/06/21 08:28:32;;;;;;;9.10;6.78;;;692.10;2432.00;;;;;;5070063;28;20077;-77
2021/06/21 08:30:58;;;;;;;15.68;8.98;;;691.90;2432.00;;;;;;5057452;28;20082;-76
2021/06/21 08:33:24;;;;;;;10.45;6.07;;;716.80;2432.00;;;;;;5058251;28;20028;-77
2021/06/21 08:35:50;;;;;;;13.27;7.32;;;717.10;2432.00;;;;;;5051605;28;20448;-77
2021/06/21 08:38:16;;;;;;;18.42;10.38;;;717.10;2432.00;;;;;;5071856;28;20023;-77
2021/06/21 08:40:41;;;;;;;11.80;7.85;;;717.20;2432.00;;;;;;5058467;28;20029;-77
2021/06/21 08:43:08;;;;;;;11.70;8.85;;;717.20;2432.00;;;;;;5037587;28;20070;-77
2021/06/21 08:45:35;;;;;;;14.93;9.15;;;717.20;2432.00;;;;;;5055909;28;20419;-77
2021/06/21 08:48:05;;;;;;;20.33;11.07;;;717.20;2432.00;;;;;;5037835;28;20074;-76
2021/06/21 08:50:31;;;;;;;11.38;6.93;;;717.50;2432.00;;;;;;5042754;28;20222;-76
2021/06/21 08:52:59;;;;;;;12.43;6.93;;;717.30;2432.00;;;;;;5017956;28;20480;-76
2021/06/21 08:55:25;;;;;;;13.20;6.45;;;717.20;2432.00;;;;;;5017945;28;20021;-76
2021/06/21 08:57:51;;;;;;;10.30;5.45;;;742.50;2432.00;;;;;;5017521;28;20025;-77
2021/06/21 09:00:18;;;;;;;7.63;5.32;;;717.50;2432.00;;;;;;5045055;28;20032;-77
2021/06/21 09:02:47;;;;;;;8.00;4.68;;;717.10;2432.00;;;;;;5067472;28;20040;-76
2021/06/21 09:05:13;;;;;;;10.73;6.53;;;717.00;2432.00;;;;;;5073125;28;20035;-77
2021/06/21 09:07:39;;;;;;;14.38;9.35;;;717.00;2432.00;;;;;;5053462;28;20040;-76
2021/06/21 09:10:20;;;;;;;7.97;6.88;;;717.00;2432.00;;;;;;5054400;28;20028;-76
2021/06/21 09:12:46;;;;;;;7.35;5.82;;;717.10;2432.00;;;;;;5035179;28;20029;-77
2021/06/21 09:15:12;;;;;;;13.38;10.57;;;717.20;2432.00;;;;;;5041029;28;20029;-77
2021/06/21 09:17:38;;;;;;;18.70;9.02;;;717.20;2432.00;;;;;;5033662;28;20444;-76
2021/06/21 09:20:08;;;;;;;32.90;18.73;;;717.20;2432.00;;;;;;5054537;28;20033;-76
2021/06/21 09:22:41;;;;;;;22.42;12.45;;;717.30;2432.00;;;;;;5069899;28;20036;-77
2021/06/21 09:25:16;;;;;;;18.00;9.00;;;717.40;2432.00;;;;;;5039082;28;20017;-77
2021/06/21 09:27:52;;;;;;;16.13;8.77;;;717.50;2432.00;;;;;;5034336;28;20360;-77
2021/06/21 09:30:19;;;;;;;10.95;6.10;;;717.60;2432.00;;;;;;5034980;28;20029;-77
2021/06/21 09:32:50;;;;;;;6.32;4.35;;;717.40;2432.00;;;;;;5034571;28;20376;-77
2021/06/21 09:35:34;;;;;;;17.27;7.40;;;717.30;2432.00;;;;;;5064621;28;20036;-77
2021/06/21 09:38:14;;;;;;;10.30;4.40;;;717.50;2432.00;;;;;;5039000;28;20024;-76
2021/06/21 09:40:57;;;;;;;7.10;4.75;;;717.60;2432.00;;;;;;5039019;28;20032;-77
2021/06/21 09:43:34;;;;;;;10.80;5.80;;;717.70;2432.00;;;;;;5063775;28;20363;-77
2021/06/21 09:46:12;;;;;;;9.73;5.65;;;742.40;2432.00;;;;;;5054889;28;20075;-77
2021/06/21 09:48:37;;;;;;;5.97;4.93;;;742.40;2432.00;;;;;;5054809;28;20372;-77
2021/06/21 09:51:18;;;;;;;9.30;5.32;;;742.50;2432.00;;;;;;5051115;28;20035;-76
2021/06/21 09:54:06;;;;;;;5.80;4.13;;;742.50;2432.00;;;;;;5069899;28;20218;-77
2021/06/21 09:56:41;;;;;;;19.52;9.25;;;742.70;2432.00;;;;;;5044726;28;20029;-77
2021/06/21 09:59:21;;;;;;;14.93;8.98;;;742.90;2432.00;;;;;;5034711;28;20346;-77
2021/06/21 10:02:11;;;;;;;7.43;4.28;;;743.20;2432.00;;;;;;5041868;28;166501;-78
2021/06/21 10:04:41;;;;;;;14.68;7.05;;;768.00;2432.00;;;;;;5026899;28;20033;-77
2021/06/21 10:07:30;;;;;;;14.05;8.32;;;768.20;2432.00;;;;;;5053261;28;20028;-76
2021/06/21 10:10:20;;;;;;;15.43;7.78;;;768.50;2432.00;;;;;;5057705;28;20017;-77
2021/06/21 10:12:46;;;;;;;6.75;4.97;;;768.60;2432.00;;;;;;5055081;28;20345;-77
2021/06/21 10:15:13;;;;;;;9.20;5.35;;;768.80;2432.00;;;;;;5073697;28;20082;-77
2021/06/21 10:17:39;;;;;;;10.85;9.15;;;768.90;2432.00;;;;;;5056046;28;20364;-77
2021/06/21 10:20:09;;;;;;;10.85;6.35;;;793.80;2432.00;;;;;;5055715;28;20025;-78
2021/06/21 10:22:37;;;;;;;10.68;7.10;;;794.00;2432.00;;;;;;5073964;28;20024;-77
2021/06/21 10:25:06;;;;;;;12.82;9.23;;;794.00;2432.00;;;;;;5073982;28;20021;-78
2021/06/21 10:27:33;;;;;;;8.20;6.65;;;794.20;2406.40;;;;;;5073887;28;20023;-76
2021/06/21 10:29:59;;;;;;;14.13;6.07;;;794.30;2355.20;;;;;;5073974;28;20028;-77
2021/06/21 10:32:27;;;;;;;12.88;6.32;;;819.20;2432.00;;;;;;5025290;28;20377;-76
2021/06/21 10:34:54;;;;;;;10.40;5.85;;;819.20;2380.80;;;;;;5042247;28;20033;-76
2021/06/21 10:37:23;;;;;;;8.43;4.90;;;819.20;2355.20;;;;;;5073850;28;20020;-77
2021/06/21 10:39:52;;;;;;;10.50;5.10;;;819.20;2278.40;;;;;;5041509;28;20028;-77
2021/06/21 10:42:19;;;;;;;8.75;4.90;;;794.40;2252.80;;;;;;5043202;28;20028;-77
2021/06/21 10:44:55;;;;;;;9.70;6.47;;;819.20;2176.00;;;;;;5073306;28;20073;-78
2021/06/21 10:47:31;;;;;;;6.38;4.75;;;819.50;2201.60;;;;;;5045454;28;20020;-77
2021/06/21 10:50:00;;;;;;;7.85;3.60;;;819.80;2124.80;;;;;;5044340;28;20070;-79
2021/06/21 10:52:30;;;;;;;8.23;6.20;;;819.90;2048.00;;;;;;5065549;28;20028;-78
2021/06/21 10:55:24;;;;;;;8.52;5.25;;;820.00;2176.00;;;;;;5053926;28;20017;-78
2021/06/21 10:58:28;;;;;;;6.05;4.30;;;819.80;2176.00;;;;;;5061428;28;20017;-78
2021/06/21 11:00:55;;;;;;;7.25;4.82;;;794.50;2176.00;;;;;;5049446;28;20020;-77
2021/06/21 11:03:25;;;;;;;9.95;4.30;;;794.40;2099.20;;;;;;5043629;28;20136;-77
2021/06/21 11:06:05;;;;;;;11.00;4.72;;;794.00;2099.20;;;;;;5043571;28;20018;-78
2021/06/21 11:08:34;;;;;;;6.70;3.70;;;794.10;2048.00;;;;;;5044392;28;20025;-78
2021/06/21 11:11:00;;;;;;;7.88;4.47;;;794.20;2073.60;;;;;;5048798;28;20025;-80
2021/06/21 11:13:35;;;;;;;8.98;4.00;;;794.50;2048.00;;;;;;5064777;28;20031;-78
2021/06/21 11:16:30;;;;;;;7.05;4.00;;;819.30;2099.20;;;;;;5033541;28;20048;-78
2021/06/21 11:19:21;;;;;;;9.98;5.93;;;819.30;2048.00;;;;;;5031887;28;20078;-78
2021/06/21 11:21:50;;;;;;;8.25;4.60;;;819.40;2073.60;;;;;;5050795;28;20031;-79
2021/06/21 11:24:35;;;;;;;9.95;6.38;;;819.40;2073.60;;;;;;5055705;28;20017;-79
2021/06/21 11:27:04;;;;;;;6.20;4.63;;;819.60;2073.60;;;;;;5047359;28;20031;-78
2021/06/21 11:29:35;;;;;;;9.68;4.82;;;819.60;2048.00;;;;;;5048038;28;20078;-79
2021/06/21 11:32:04;;;;;;;6.40;5.17;;;820.00;2022.40;;;;;;5047265;28;20495;-78
2021/06/21 11:34:50;;;;;;;9.93;4.93;;;819.80;2022.40;;;;;;5037421;28;20282;-79
2021/06/21 11:37:36;;;;;;;9.90;5.90;;;820.00;2022.40;;;;;;5036806;28;20024;-80
2021/06/21 11:40:25;;;;;;;8.75;4.50;;;820.00;2022.40;;;;;;5019545;28;20033;-78
2021/06/21 11:42:58;;;;;;;12.07;5.05;;;820.10;2048.00;;;;;;5019379;28;20030;-79
2021/06/21 11:45:57;;;;;;;7.88;5.10;;;819.80;2022.40;;;;;;5018956;28;20175;-78
2021/06/21 11:48:32;;;;;;;6.68;4.93;;;820.00;2022.40;;;;;;5019118;28;20017;-78
2021/06/21 11:51:11;;;;;;;8.40;5.15;;;845.00;2048.00;;;;;;5046696;28;20028;-78
2021/06/21 11:53:41;;;;;;;12.10;4.55;;;845.20;2022.40;;;;;;5074227;28;20031;-78
2021/06/21 11:56:07;;;;;;;7.78;4.65;;;844.90;2022.40;;;;;;5058837;28;20034;-76
2021/06/21 11:58:34;;;;;;;5.60;4.18;;;844.90;2022.40;;;;;;5058361;28;20024;-77
2021/06/21 12:01:13;;;;;;;11.90;5.45;;;845.10;2022.40;;;;;;5058619;28;20452;-78
2021/06/21 12:03:43;;;;;;;11.65;5.80;;;845.40;2048.00;;;;;;5058489;28;20041;-77
2021/06/21 12:06:17;;;;;;;7.93;4.40;;;845.60;2022.40;;;;;;5058257;28;20024;-78
2021/06/21 12:08:44;;;;;;;9.25;4.20;;;870.60;1945.60;;;;;;5058295;28;20013;-78
2021/06/21 12:11:12;;;;;;;8.07;5.03;;;845.70;1971.20;;;;;;5058354;28;20039;-78
2021/06/21 12:13:38;;;;;;;5.93;4.18;;;870.50;1894.40;;;;;;5076066;28;20019;-78
2021/06/21 12:16:09;;;;;;;8.15;5.07;;;845.70;1920.00;;;;;;5076311;28;20364;-77
2021/06/21 12:18:35;;;;;;;8.23;4.35;;;845.40;1920.00;;;;;;5057821;28;20028;-78